Time,TemperatureF,DewpointF,PressureIn,WindDirection,WindDirectionDegrees,WindSpeedMPH,WindSpeedGustMPH,Humidity,HourlyPrecipIn,Conditions,Clouds,dailyrainin,SoftwareType,DateUTC
2013-06-24 00:10:00,66.9,61.0,25.65,SSW,198,8.0,16.0,81,0.00,,,0.00,weatherlink.com 1.10,2013-06-24 06:10:00,
2013-06-24 00:25:00,66.5,61.0,25.64,SSW,198,6.0,13.0,82,0.00,,,0.00,weatherlink.com 1.10,2013-06-24 06:25:00,
2013-06-24 00:55:00,64.5,60.0,25.64,South,173,5.0,8.0,85,0.00,,,0.00,weatherlink.com 1.10,2013-06-24 06:55:00,
2013-06-24 01:10:00,64.4,60.0,25.64,SSW,195,5.0,10.0,84,0.00,,,0.00,weatherlink.com 1.10,2013-06-24 07:10:00,
2013-06-24 01:26:00,64.3,60.0,25.63,SE,145,12.0,13.0,87,0.00,,,0.00,weatherlink.com 1.10,2013-06-24 07:26:00,
2013-06-24 01:56:00,64.0,61.0,25.62,South,189,7.0,16.0,90,0.00,,,0.00,weatherlink.com 1.10,2013-06-24 07:56:00,
2013-06-24 02:11:00,64.0,61.0,25.62,SSE,160,10.0,14.0,89,0.00,,,0.00,weatherlink.com 1.10,2013-06-24 08:11:00,
2013-06-24 02:26:00,63.9,60.0,25.61,SSW,197,8.0,17.0,88,0.00,,,0.00,weatherlink.com 1.10,2013-06-24 08:26:00,
2013-06-24 02:56:00,64.2,59.0,25.61,SSE,156,9.0,13.0,83,0.00,,,0.00,weatherlink.com 1.10,2013-06-24 08:56:00,
2013-06-24 03:11:00,64.1,58.0,25.61,SSE,158,12.0,12.0,81,0.00,,,0.00,weatherlink.com 1.10,2013-06-24 09:11:00,
2013-06-24 03:26:00,64.3,56.0,25.62,South,191,7.0,11.0,75,0.00,,,0.00,weatherlink.com 1.10,2013-06-24 09:26:00,
2013-06-24 03:41:00,64.1,55.0,25.61,SSE,150,7.0,11.0,71,0.00,,,0.00,weatherlink.com 1.10,2013-06-24 09:41:00,
2013-06-24 03:56:00,63.2,54.0,25.61,SSW,200,4.0,7.0,73,0.00,,,0.00,weatherlink.com 1.10,2013-06-24 09:56:00,
2013-06-24 04:11:00,62.5,54.0,25.61,SE,142,3.0,4.0,74,0.00,,,0.00,weatherlink.com 1.10,2013-06-24 10:11:00,
2013-06-24 04:26:00,61.7,54.0,25.60,SE,146,4.0,4.0,75,0.00,,,0.00,weatherlink.com 1.10,2013-06-24 10:26:00,
2013-06-24 04:41:00,61.1,54.0,25.60,SSE,164,2.0,4.0,76,0.00,,,0.00,weatherlink.com 1.10,2013-06-24 10:41:00,
2013-06-24 04:56:00,60.7,53.0,25.60,SSE,163,2.0,4.0,76,0.00,,,0.00,weatherlink.com 1.10,2013-06-24 10:56:00,
2013-06-24 05:11:00,60.1,53.0,25.60,West,278,0.0,2.0,77,0.00,,,0.00,weatherlink.com 1.10,2013-06-24 11:11:00,
2013-06-24 05:41:00,59.5,53.0,25.60,WSW,240,1.0,1.0,78,0.00,,,0.00,weatherlink.com 1.10,2013-06-24 11:41:00,
2013-06-24 05:56:00,60.2,53.0,25.61,SW,231,1.0,2.0,76,0.00,,,0.00,weatherlink.com 1.10,2013-06-24 11:56:00,
2013-06-24 06:11:00,60.7,53.0,25.60,WSW,249,3.0,3.0,76,0.00,,,0.00,weatherlink.com 1.10,2013-06-24 12:11:00,
2013-06-24 06:26:00,61.1,54.0,25.60,WSW,256,4.0,5.0,76,0.00,,,0.00,weatherlink.com 1.10,2013-06-24 12:26:00,
2013-06-24 06:41:00,61.2,54.0,25.60,West,271,2.0,6.0,77,0.00,,,0.00,weatherlink.com 1.10,2013-06-24 12:41:00,
2013-06-24 07:11:00,62.5,54.0,25.60,WSW,257,7.0,9.0,74,0.00,,,0.00,weatherlink.com 1.10,2013-06-24 13:11:00,
2013-06-24 07:26:00,64.9,55.0,25.59,WSW,250,7.0,14.0,70,0.00,,,0.00,weatherlink.com 1.10,2013-06-24 13:26:00,
2013-06-24 07:41:00,67.3,55.0,25.59,WSW,238,8.0,13.0,65,0.00,,,0.00,weatherlink.com 1.10,2013-06-24 13:41:00,
2013-06-24 07:56:00,68.4,54.0,25.59,WNW,291,4.0,13.0,61,0.00,,,0.00,weatherlink.com 1.10,2013-06-24 13:56:00,
2013-06-24 08:26:00,70.9,54.0,25.59,West,259,5.0,15.0,56,0.00,,,0.00,weatherlink.com 1.10,2013-06-24 14:26:00,
2013-06-24 08:42:00,72.4,53.0,25.59,WNW,290,9.0,20.0,50,0.00,,,0.00,weatherlink.com 1.10,2013-06-24 14:42:00,
2013-06-24 08:57:00,73.8,53.0,25.59,WSW,255,17.0,20.0,48,0.00,,,0.00,weatherlink.com 1.10,2013-06-24 14:57:00,
2013-06-24 09:12:00,75.0,53.0,25.59,WNW,283,13.0,19.0,46,0.00,,,0.00,weatherlink.com 1.10,2013-06-24 15:12:00,
2013-06-24 09:27:00,76.3,52.0,25.59,WSW,243,11.0,22.0,43,0.00,,,0.00,weatherlink.com 1.10,2013-06-24 15:27:00,
2013-06-24 09:57:00,78.3,52.0,25.60,SW,214,14.0,18.0,40,0.00,,,0.00,weatherlink.com 1.10,2013-06-24 15:57:00,
2013-06-24 10:12:00,78.4,52.0,25.60,SW,230,14.0,20.0,40,0.00,,,0.00,weatherlink.com 1.10,2013-06-24 16:12:00,
2013-06-24 10:42:00,79.1,53.0,25.60,SSW,193,11.0,19.0,41,0.00,,,0.00,weatherlink.com 1.10,2013-06-24 16:42:00,
2013-06-24 10:57:00,80.4,54.0,25.60,South,173,18.0,18.0,40,0.00,,,0.00,weatherlink.com 1.10,2013-06-24 16:57:00,
2013-06-24 11:12:00,80.6,53.0,25.60,SW,225,7.0,20.0,39,0.00,,,0.00,weatherlink.com 1.10,2013-06-24 17:12:00,
2013-06-24 11:27:00,81.8,54.0,25.60,WSW,246,10.0,19.0,38,0.00,,,0.00,weatherlink.com 1.10,2013-06-24 17:27:00,
2013-06-24 11:42:00,82.6,54.0,25.59,SSW,210,9.0,22.0,37,0.00,,,0.00,weatherlink.com 1.10,2013-06-24 17:42:00,
2013-06-24 11:57:00,83.9,53.0,25.59,South,170,10.0,22.0,35,0.00,,,0.00,weatherlink.com 1.10,2013-06-24 17:57:00,
2013-06-24 12:12:00,84.5,53.0,25.58,SSW,197,8.0,23.0,34,0.00,,,0.00,weatherlink.com 1.10,2013-06-24 18:12:00,
2013-06-24 12:57:00,86.9,52.0,25.56,WSW,257,18.0,22.0,30,0.00,,,0.00,weatherlink.com 1.10,2013-06-24 18:57:00,
2013-06-24 13:12:00,87.5,52.0,25.56,SSW,207,10.0,22.0,30,0.00,,,0.00,weatherlink.com 1.10,2013-06-24 19:12:00,
2013-06-24 13:27:00,87.0,52.0,25.56,WSW,242,13.0,18.0,30,0.00,,,0.00,weatherlink.com 1.10,2013-06-24 19:27:00,
2013-06-24 13:42:00,86.9,52.0,25.55,SW,231,11.0,22.0,30,0.00,,,0.00,weatherlink.com 1.10,2013-06-24 19:42:00,
2013-06-24 13:57:00,87.0,53.0,25.55,WSW,241,12.0,20.0,31,0.00,,,0.00,weatherlink.com 1.10,2013-06-24 19:57:00,
2013-06-24 14:12:00,87.8,53.0,25.55,SSW,207,10.0,22.0,30,0.00,,,0.00,weatherlink.com 1.10,2013-06-24 20:12:00,
2013-06-24 14:28:00,88.3,51.0,25.55,SSW,192,12.0,24.0,28,0.00,,,0.00,weatherlink.com 1.10,2013-06-24 20:28:00,
2013-06-24 14:58:00,89.4,52.0,25.54,South,184,13.0,27.0,28,0.00,,,0.00,weatherlink.com 1.10,2013-06-24 20:58:00,
2013-06-24 15:13:00,87.4,52.0,25.54,South,186,23.0,27.0,30,0.00,,,0.00,weatherlink.com 1.10,2013-06-24 21:13:00,
2013-06-24 15:28:00,88.3,52.0,25.54,SSW,198,15.0,27.0,29,0.00,,,0.00,weatherlink.com 1.10,2013-06-24 21:28:00,
2013-06-24 15:58:00,88.1,56.0,25.53,SSW,207,10.0,25.0,33,0.00,,,0.00,weatherlink.com 1.10,2013-06-24 21:58:00,
2013-06-24 16:43:00,84.9,55.0,25.52,SSW,201,18.0,25.0,36,0.00,,,0.00,weatherlink.com 1.10,2013-06-24 22:43:00,
2013-06-24 16:58:00,84.7,55.0,25.52,SSW,209,16.0,27.0,36,0.00,,,0.00,weatherlink.com 1.10,2013-06-24 22:58:00,
2013-06-24 17:13:00,84.4,55.0,25.52,South,181,12.0,26.0,37,0.00,,,0.00,weatherlink.com 1.10,2013-06-24 23:13:00,
2013-06-24 17:28:00,84.0,55.0,25.53,South,180,12.0,21.0,37,0.00,,,0.00,weatherlink.com 1.10,2013-06-24 23:28:00,
2013-06-24 17:43:00,83.2,56.0,25.53,SW,226,11.0,19.0,40,0.00,,,0.00,weatherlink.com 1.10,2013-06-24 23:43:00,
2013-06-24 17:58:00,82.3,58.0,25.53,SSE,161,12.0,18.0,43,0.00,,,0.00,weatherlink.com 1.10,2013-06-24 23:58:00,
2013-06-24 18:13:00,81.8,58.0,25.54,SE,134,13.0,17.0,45,0.00,,,0.00,weatherlink.com 1.10,2013-06-25 00:13:00,
2013-06-24 18:28:00,81.5,59.0,25.54,SE,132,11.0,21.0,46,0.00,,,0.00,weatherlink.com 1.10,2013-06-25 00:28:00,
2013-06-24 18:43:00,80.1,60.0,25.55,SE,125,11.0,16.0,51,0.00,,,0.00,weatherlink.com 1.10,2013-06-25 00:43:00,
2013-06-24 18:58:00,76.4,55.0,25.55,NE,50,16.0,19.0,47,0.00,,,0.00,weatherlink.com 1.10,2013-06-25 00:58:00,
2013-06-24 19:13:00,75.6,55.0,25.54,ENE,64,20.0,25.0,49,0.00,,,0.00,weatherlink.com 1.10,2013-06-25 01:13:00,
2013-06-24 19:43:00,70.7,48.0,25.56,East,84,19.0,26.0,44,0.00,,,0.00,weatherlink.com 1.10,2013-06-25 01:43:00,
2013-06-24 19:58:00,70.9,48.0,25.58,ENE,71,16.0,26.0,44,0.00,,,0.00,weatherlink.com 1.10,2013-06-25 01:58:00,
2013-06-24 20:28:00,69.4,49.0,25.62,ENE,58,12.0,15.0,49,0.00,,,0.00,weatherlink.com 1.10,2013-06-25 02:28:00,
2013-06-24 20:58:00,71.6,54.0,25.57,ENE,70,31.0,34.0,54,0.00,,,0.00,weatherlink.com 1.10,2013-06-25 02:58:00,
2013-06-24 21:13:00,73.3,53.0,25.55,East,86,26.0,37.0,50,0.00,,,0.00,weatherlink.com 1.10,2013-06-25 03:13:00,
2013-06-24 21:43:00,71.5,49.0,25.60,ESE,112,7.0,19.0,45,0.00,,,0.00,weatherlink.com 1.10,2013-06-25 03:43:00,
2013-06-24 22:13:00,71.0,49.0,25.60,SE,139,10.0,13.0,45,0.00,,,0.00,weatherlink.com 1.10,2013-06-25 04:13:00,
2013-06-24 22:28:00,70.2,49.0,25.58,East,97,13.0,14.0,47,0.00,,,0.00,weatherlink.com 1.10,2013-06-25 04:28:00,
2013-06-24 22:44:00,70.4,49.0,25.58,ESE,120,15.0,20.0,47,0.00,,,0.00,weatherlink.com 1.10,2013-06-25 04:44:00,
2013-06-24 22:58:00,68.9,50.0,25.59,East,91,13.0,18.0,51,0.00,,,0.00,weatherlink.com 1.10,2013-06-25 04:58:00,
2013-06-24 23:13:00,68.9,50.0,25.58,East,101,13.0,20.0,52,0.00,,,0.00,weatherlink.com 1.10,2013-06-25 05:13:00,
2013-06-24 23:28:00,68.7,50.0,25.58,ESE,105,12.0,22.0,52,0.00,,,0.00,weatherlink.com 1.10,2013-06-25 05:28:00,
2013-06-24 23:43:00,68.0,51.0,25.57,SE,126,11.0,18.0,54,0.00,,,0.00,weatherlink.com 1.10,2013-06-25 05:43:00,
2013-06-24 23:58:00,67.0,50.0,25.57,SE,125,11.0,11.0,55,0.00,,,0.00,weatherlink.com 1.10,2013-06-25 05:58:00,